FVWN

Hwange National Park Airport

Hwange, Zimbabwe
METAR FVWN 200900Z 05008KT CAVOK 25/07 Q1024
Observed Flight Rules
Aug-20 @ 09:00 UTC (19 hours ago) Visual Flight Rules
Wind Visibility Clouds
50° at 8 knots 10,000+ meters
  • Clear skies
Temperatures Readings
Current 25°C / 77°F
Dewpoint 7°C / 45°F
Humidity 32%
Altimeter 30.24" Hg
Pressure 1024 hPa
Elevation 1077
METAR FVWN 200900Z 05008KT CAVOK 25/07 Q1024
Observed Flight Rules
Aug-20 @ 09:00 UTC
(19 hours ago)
VFR
Wind Visibility
50° at 8 knots 10,000+ meters
Clouds
  • Clear skies
Temperature Dewpoint
25°C / 77°F 7°C / 45°F
Humidity Altimeter Pressure
32% 30.24" Hg 1024 hPa